createdAt,value
2022-08-19T00:01:57.395Z,101123.91
2022-08-19T00:04:33.912Z,101126.44
2022-08-19T00:07:07.063Z,101112.34
2022-08-19T00:09:38.937Z,101110.69
2022-08-19T00:12:11.415Z,101100.47
2022-08-19T00:14:43.418Z,101100.16
2022-08-19T00:17:15.308Z,101101.22
2022-08-19T00:19:47.326Z,101104.25
2022-08-19T00:22:19.516Z,101118.31
2022-08-19T00:24:51.407Z,101118.31
2022-08-19T00:27:25.910Z,101117.22
2022-08-19T00:29:59.904Z,101112.78
2022-08-19T00:32:32.245Z,101112.78
2022-08-19T00:35:06.925Z,101118.31
2022-08-19T00:37:39.406Z,101107.81
2022-08-19T00:40:13.351Z,101110.84
2022-08-19T00:42:46.054Z,101101.72
2022-08-19T00:45:26.819Z,101103.34
2022-08-19T00:47:59.339Z,101102.22
2022-08-19T00:50:31.745Z,101096.69
2022-08-19T00:53:05.205Z,101091.16
2022-08-19T00:55:38.801Z,101086.47
2022-08-19T00:58:15.416Z,101092.31
2022-08-19T01:00:48.162Z,101092.31
2022-08-19T01:03:21.358Z,101093.97
2022-08-19T01:05:55.597Z,101090.13
2022-08-19T01:08:27.696Z,101095.91
2022-08-19T01:11:00.440Z,101092.31
2022-08-19T01:13:49.060Z,101094.81
2022-08-19T01:16:25.295Z,101097.56
2022-08-19T01:19:00.127Z,101089.00
2022-08-19T01:21:57.040Z,101097.25
2022-08-19T01:24:29.450Z,101088.38
2022-08-19T01:27:05.186Z,101082.84
2022-08-19T01:29:45.790Z,101084.53
2022-08-19T01:32:33.216Z,101093.91
2022-08-19T01:35:06.453Z,101088.38
2022-08-19T01:37:53.899Z,101087.28
2022-08-19T01:40:30.194Z,101083.16
2022-08-19T01:43:04.045Z,101069.09
2022-08-19T01:45:36.773Z,101077.09
2022-08-19T01:48:09.919Z,101061.38
2022-08-19T01:50:41.879Z,101055.00
2022-08-19T01:53:14.216Z,101054.19
2022-08-19T01:55:49.523Z,101057.78
2022-08-19T01:58:24.276Z,101063.56
2022-08-19T02:00:58.119Z,101060.75
2022-08-19T02:03:30.668Z,101065.16
2022-08-19T02:06:03.992Z,101055.47
2022-08-19T02:08:38.327Z,101057.38
2022-08-19T02:11:10.337Z,101061.28
2022-08-19T02:13:42.319Z,101051.81
2022-08-19T02:16:14.912Z,101049.03
2022-08-19T02:18:49.394Z,101036.84
2022-08-19T02:21:22.829Z,101026.34
2022-08-19T02:23:55.171Z,101032.38
2022-08-19T02:26:27.744Z,101025.22
2022-08-19T02:28:59.713Z,101020.78
2022-08-19T02:31:32.103Z,101029.06
2022-08-19T02:34:04.245Z,101037.03
2022-08-19T02:36:36.287Z,101044.16
2022-08-19T02:39:14.666Z,101053.22
2022-08-19T02:41:46.831Z,101050.41
2022-08-19T02:44:29.749Z,101043.78
2022-08-19T02:47:03.801Z,101048.44
2022-08-19T02:49:35.843Z,101035.75
2022-08-19T02:52:08.188Z,101039.34
2022-08-19T02:54:40.222Z,101038.00
2022-08-19T02:57:12.068Z,101043.78
2022-08-19T02:59:44.074Z,101035.25
2022-08-19T03:02:16.881Z,101038.28
2022-08-19T03:04:48.828Z,101046.06
2022-08-19T03:07:20.775Z,101041.09
2022-08-19T03:09:52.694Z,101049.97
2022-08-19T03:12:24.869Z,101050.50
2022-08-19T03:14:57.079Z,101045.81
2022-08-19T03:17:29.150Z,101050.50
2022-08-19T03:20:01.590Z,101047.66
2022-08-19T03:22:33.552Z,101054.81
2022-08-19T03:25:05.815Z,101047.06
2022-08-19T03:27:37.796Z,101053.38
2022-08-19T03:30:11.926Z,101041.50
2022-08-19T03:32:45.436Z,101064.41
2022-08-19T03:35:18.004Z,101055.84
2022-08-19T03:37:50.028Z,101057.47
2022-08-19T03:40:21.967Z,101048.66
2022-08-19T03:42:53.898Z,101045.56
2022-08-19T03:45:28.489Z,101050.78
2022-08-19T03:48:01.497Z,101057.63
2022-08-19T03:50:33.486Z,101069.50
2022-08-19T03:53:05.376Z,101062.34
2022-08-19T03:55:42.087Z,101056.28
2022-08-19T03:58:14.128Z,101067.31
2022-08-19T04:00:46.352Z,101072.53
2022-08-19T04:03:19.776Z,101081.59
2022-08-19T04:05:51.976Z,101075.25
2022-08-19T04:08:24.861Z,101088.44
2022-08-19T04:10:56.702Z,101092.28
2022-08-19T04:13:28.618Z,101086.28
2022-08-19T04:16:00.458Z,101084.06
2022-08-19T04:18:36.486Z,101086.56
2022-08-19T04:21:08.900Z,101092.94
2022-08-19T04:23:44.781Z,101099.78
2022-08-19T04:26:22.645Z,101107.50
2022-08-19T04:28:56.164Z,101107.75
2022-08-19T04:31:30.256Z,101111.34
2022-08-19T04:34:04.629Z,101105.53
2022-08-19T04:36:37.856Z,101118.22
2022-08-19T04:39:12.800Z,101111.59
2022-08-19T04:42:04.239Z,101114.34
2022-08-19T04:44:38.954Z,101111.03
2022-08-19T04:47:18.531Z,101122.31
2022-08-19T04:50:12.177Z,101119.56
2022-08-19T04:52:44.111Z,101110.19
2022-08-19T04:55:16.149Z,101113.50
2022-08-19T04:57:48.271Z,101114.09
2022-08-19T05:00:20.465Z,101126.81
2022-08-19T05:02:52.663Z,101122.97
2022-08-19T05:05:24.946Z,101123.47
2022-08-19T05:07:57.480Z,101119.88
2022-08-19T05:10:29.368Z,101125.97
2022-08-19T05:13:01.568Z,101130.06
2022-08-19T05:15:33.617Z,101132.25
2022-08-19T05:18:23.846Z,101131.19
2022-08-19T05:21:14.757Z,101131.25
2022-08-19T05:23:46.742Z,101128.47
2022-08-19T05:26:18.583Z,101136.47
2022-08-19T05:28:54.543Z,101145.28
2022-08-19T05:31:26.836Z,101146.34
2022-08-19T05:33:59.554Z,101137.19
2022-08-19T05:36:40.220Z,101138.81
2022-08-19T05:39:17.072Z,101150.34
2022-08-19T05:41:53.717Z,101139.81
2022-08-19T05:44:27.456Z,101133.75
2022-08-19T05:47:00.650Z,101138.09
2022-08-19T05:49:34.242Z,101140.84
2022-08-19T05:52:09.364Z,101139.22
2022-08-19T05:54:42.509Z,101136.50
2022-08-19T05:57:14.964Z,101124.06
2022-08-19T05:59:49.375Z,101135.91
2022-08-19T06:02:34.261Z,101130.16
2022-08-19T06:05:09.863Z,101133.22
2022-08-19T06:07:42.231Z,101134.97
2022-08-19T06:10:14.328Z,101141.38
2022-08-19T06:12:46.301Z,101133.94
2022-08-19T06:15:18.220Z,101142.75
2022-08-19T06:17:50.169Z,101135.91
2022-08-19T06:20:39.741Z,101138.41
2022-08-19T06:23:16.265Z,101146.16
2022-08-19T06:25:49.119Z,101142.31
2022-08-19T06:28:22.185Z,101143.72
2022-08-19T06:30:54.473Z,101137.38
2022-08-19T06:33:26.404Z,101140.72
2022-08-19T06:35:58.326Z,101134.06
2022-08-19T06:38:30.375Z,101132.38
2022-08-19T06:41:07.758Z,101127.94
2022-08-19T06:43:42.281Z,101129.34
2022-08-19T06:46:16.294Z,101128.00
2022-08-19T06:48:50.100Z,101128.53
2022-08-19T06:51:23.242Z,101133.47
2022-08-19T06:53:56.759Z,101134.84
2022-08-19T06:56:35.408Z,101131.00
2022-08-19T06:59:10.569Z,101128.53
2022-08-19T07:01:48.093Z,101133.22
2022-08-19T07:04:26.278Z,101141.22
2022-08-19T07:07:20.231Z,101141.78
2022-08-19T07:09:58.377Z,101132.94
2022-08-19T07:12:35.851Z,101137.38
2022-08-19T07:15:10.801Z,101143.41
2022-08-19T07:17:44.265Z,101137.91
2022-08-19T07:20:16.794Z,101142.31
2022-08-19T07:22:50.586Z,101134.84
2022-08-19T07:25:22.874Z,101129.69
2022-08-19T07:28:04.952Z,101134.41
2022-08-19T07:30:38.103Z,101136.63
2022-08-19T07:33:10.437Z,101143.88
2022-08-19T07:35:43.107Z,101156.66
2022-08-19T07:38:16.597Z,101166.31
2022-08-19T07:40:48.672Z,101167.44
2022-08-19T07:43:21.749Z,101162.16
2022-08-19T07:45:59.489Z,101172.16
2022-08-19T07:48:31.799Z,101166.94
2022-08-19T07:51:06.730Z,101174.94
2022-08-19T07:53:39.949Z,101176.31
2022-08-19T07:56:13.666Z,101181.31
2022-08-19T07:58:47.416Z,101181.06
2022-08-19T08:01:22.680Z,101184.13
2022-08-19T08:04:15.303Z,101188.53
2022-08-19T08:07:05.810Z,101192.97
2022-08-19T08:09:39.816Z,101196.34
2022-08-19T08:12:33.786Z,101193.81
2022-08-19T08:15:12.781Z,101205.69
2022-08-19T08:17:55.120Z,101208.47
2022-08-19T08:20:38.184Z,101202.94
2022-08-19T08:23:27.279Z,101202.94
2022-08-19T08:26:06.871Z,101206.72
2022-08-19T08:28:39.835Z,101210.28
2022-08-19T08:31:13.112Z,101211.63
2022-08-19T08:33:45.107Z,101206.91
2022-08-19T08:36:18.226Z,101205.59
2022-08-19T08:38:50.463Z,101220.47
2022-08-19T08:41:47.422Z,101210.81
2022-08-19T08:44:24.479Z,101217.09
2022-08-19T08:47:04.397Z,101206.00
2022-08-19T08:49:56.094Z,101212.06
2022-08-19T08:52:43.586Z,101215.97
2022-08-19T08:55:21.445Z,101213.28
2022-08-19T08:57:59.088Z,101211.09
2022-08-19T09:00:34.979Z,101218.59
2022-08-19T09:03:24.155Z,101221.75
2022-08-19T09:06:05.461Z,101217.97
2022-08-19T09:08:49.550Z,101216.56
2022-08-19T09:11:42.115Z,101221.81
2022-08-19T09:14:40.713Z,101215.72
2022-08-19T09:17:10.845Z,101217.38
2022-08-19T09:20:10.398Z,101216.63
2022-08-19T09:22:46.297Z,101224.16
2022-08-19T09:25:27.055Z,101229.22
2022-08-19T09:28:05.686Z,101219.94
2022-08-19T09:30:54.453Z,101222.78
2022-08-19T09:33:26.968Z,101216.19
2022-08-19T09:36:09.897Z,101216.22
2022-08-19T09:38:43.699Z,101209.38
2022-08-19T09:41:18.460Z,101212.25
2022-08-19T09:43:53.499Z,101213.41
2022-08-19T09:46:27.554Z,101213.19
2022-08-19T09:49:03.077Z,101207.66
2022-08-19T09:51:38.689Z,101210.94
2022-08-19T09:54:11.721Z,101209.84
2022-08-19T09:56:46.814Z,101209.03
2022-08-19T09:59:19.337Z,101220.91
2022-08-19T10:01:52.765Z,101222.59
2022-08-19T10:04:46.120Z,101215.38
2022-08-19T10:07:19.068Z,101214.28
2022-08-19T10:09:53.145Z,101210.44
2022-08-19T10:12:25.318Z,101216.25
2022-08-19T10:14:59.137Z,101217.13
2022-08-19T10:17:31.509Z,101219.91
2022-08-19T10:20:06.188Z,101226.03
2022-08-19T10:22:38.773Z,101220.53
2022-08-19T10:25:11.561Z,101222.16
2022-08-19T10:27:46.561Z,101223.84
2022-08-19T10:30:24.920Z,101217.75
2022-08-19T10:32:57.265Z,101222.78
2022-08-19T10:35:30.508Z,101224.44
2022-08-19T10:38:14.930Z,101218.38
2022-08-19T10:40:47.076Z,101216.44
2022-08-19T10:43:19.221Z,101213.94
2022-08-19T10:45:58.325Z,101220.56
2022-08-19T10:48:30.809Z,101224.72
2022-08-19T10:51:22.658Z,101226.63
2022-08-19T10:53:56.516Z,101210.31
2022-08-19T10:56:47.602Z,101219.97
2022-08-19T10:59:27.124Z,101220.53
2022-08-19T11:02:04.356Z,101210.81
2022-08-19T11:04:37.696Z,101209.72
2022-08-19T11:07:27.474Z,101203.94
2022-08-19T11:09:59.842Z,101210.31
2022-08-19T11:12:31.993Z,101210.09
2022-08-19T11:15:04.293Z,101210.06
2022-08-19T11:17:36.951Z,101219.97
2022-08-19T11:20:10.093Z,101212.78
2022-08-19T11:22:43.213Z,101217.75
2022-08-19T11:25:15.310Z,101218.94
2022-08-19T11:27:51.971Z,101218.47
2022-08-19T11:30:24.202Z,101210.22
2022-08-19T11:32:56.662Z,101212.75
2022-08-19T11:35:29.184Z,101217.47
2022-08-19T11:38:02.410Z,101211.38
2022-08-19T11:40:34.475Z,101202.00
2022-08-19T11:43:07.159Z,101197.59
2022-08-19T11:45:39.119Z,101194.88
2022-08-19T11:48:11.325Z,101196.59
2022-08-19T11:50:44.624Z,101198.28
2022-08-19T11:53:17.997Z,101194.09
2022-08-19T11:55:50.826Z,101196.88
2022-08-19T11:58:23.231Z,101203.25
2022-08-19T12:00:55.294Z,101198.53
2022-08-19T12:03:27.604Z,101197.13
2022-08-19T12:05:59.931Z,101207.63
2022-08-19T12:08:32.284Z,101204.00
2022-08-19T12:11:04.354Z,101196.78
2022-08-19T12:13:37.396Z,101203.16
2022-08-19T12:16:13.265Z,101207.88
2022-08-19T12:18:47.405Z,101209.78
2022-08-19T12:21:22.970Z,101202.91
2022-08-19T12:23:56.788Z,101203.78
2022-08-19T12:26:30.725Z,101202.97
2022-08-19T12:29:03.611Z,101201.56
2022-08-19T12:31:35.780Z,101197.09
2022-08-19T12:34:08.509Z,101186.38
2022-08-19T12:36:41.503Z,101188.28
2022-08-19T12:39:13.878Z,101184.81
2022-08-19T12:41:51.537Z,101182.31
2022-08-19T12:44:29.269Z,101173.00
2022-08-19T12:47:05.661Z,101179.78
2022-08-19T12:49:53.315Z,101177.66
2022-08-19T12:52:28.286Z,101173.56
2022-08-19T12:55:00.566Z,101176.16
2022-08-19T12:57:36.803Z,101179.47
2022-08-19T13:00:12.864Z,101173.66
2022-08-19T13:02:46.718Z,101167.63
2022-08-19T13:05:24.920Z,101177.78
2022-08-19T13:08:00.412Z,101174.09
2022-08-19T13:10:35.832Z,101167.88
2022-08-19T13:13:10.745Z,101167.50
2022-08-19T13:15:45.510Z,101178.03
2022-08-19T13:18:17.688Z,101163.78
2022-08-19T13:20:52.591Z,101163.94
2022-08-19T13:23:25.158Z,101162.34
2022-08-19T13:25:58.963Z,101160.72
2022-08-19T13:28:49.217Z,101156.88
2022-08-19T13:31:43.012Z,101160.25
2022-08-19T13:34:16.186Z,101169.75
2022-08-19T13:36:48.292Z,101164.50
2022-08-19T13:39:21.535Z,101158.19
2022-08-19T13:41:56.148Z,101151.88
2022-08-19T13:44:30.586Z,101146.38
2022-08-19T13:47:07.200Z,101145.28
2022-08-19T13:49:39.039Z,101144.78
2022-08-19T13:52:10.941Z,101141.47
2022-08-19T13:54:43.374Z,101151.28
2022-08-19T13:57:15.546Z,101151.81
2022-08-19T13:59:47.585Z,101155.72
2022-08-19T14:02:19.954Z,101166.81
2022-08-19T14:04:51.895Z,101155.78
2022-08-19T14:07:24.672Z,101151.34
2022-08-19T14:09:56.926Z,101153.28
2022-08-19T14:12:29.180Z,101157.97
2022-08-19T14:15:01.638Z,101155.72
2022-08-19T14:17:35.778Z,101149.59
2022-08-19T14:20:11.169Z,101146.78
2022-08-19T14:22:49.783Z,101142.31
2022-08-19T14:25:25.198Z,101151.19
2022-08-19T14:27:57.995Z,101145.66
2022-08-19T14:30:34.412Z,101152.28
2022-08-19T14:33:08.053Z,101152.19
2022-08-19T14:35:42.803Z,101147.50
2022-08-19T14:38:28.080Z,101146.06
2022-08-19T14:41:10.800Z,101141.56
2022-08-19T14:43:43.212Z,101149.97
2022-08-19T14:46:17.023Z,101150.69
2022-08-19T14:48:51.847Z,101154.84
2022-08-19T14:51:27.422Z,101151.75
2022-08-19T14:53:59.429Z,101146.78
2022-08-19T14:56:31.742Z,101152.13
2022-08-19T14:59:03.876Z,101152.22
2022-08-19T15:01:36.091Z,101154.00
2022-08-19T15:04:08.183Z,101161.94
2022-08-19T15:06:40.512Z,101163.72
2022-08-19T15:09:12.561Z,101161.03
2022-08-19T15:11:44.660Z,101161.66
2022-08-19T15:14:17.584Z,101161.47
2022-08-19T15:16:49.992Z,101171.56
2022-08-19T15:19:22.283Z,101177.19
2022-08-19T15:21:55.666Z,101177.06
2022-08-19T15:24:27.611Z,101180.44
2022-08-19T15:26:59.567Z,101172.72
2022-08-19T15:29:32.094Z,101176.63
2022-08-19T15:32:04.155Z,101176.84
2022-08-19T15:34:36.293Z,101176.78
2022-08-19T15:37:08.522Z,101181.69
2022-08-19T15:39:40.570Z,101180.53
2022-08-19T15:42:12.563Z,101182.16
2022-08-19T15:45:01.472Z,101177.53
2022-08-19T15:47:34.855Z,101178.72
2022-08-19T15:50:12.324Z,101171.81
2022-08-19T15:52:49.936Z,101179.31
2022-08-19T15:55:34.191Z,101184.31
2022-08-19T15:58:29.684Z,101181.78
2022-08-19T16:01:24.123Z,101182.84
2022-08-19T16:04:16.815Z,101171.22
2022-08-19T16:06:51.546Z,101173.81
2022-08-19T16:09:28.825Z,101177.72
2022-08-19T16:12:04.840Z,101177.22
2022-08-19T16:14:38.260Z,101185.81
2022-08-19T16:17:12.577Z,101181.69
2022-08-19T16:19:44.548Z,101175.31
2022-08-19T16:22:16.554Z,101174.50
2022-08-19T16:24:48.466Z,101178.16
2022-08-19T16:27:20.314Z,101175.66
2022-08-19T16:29:52.405Z,101169.25
2022-08-19T16:32:24.350Z,101166.75
2022-08-19T16:34:56.255Z,101164.84
2022-08-19T16:37:28.367Z,101166.81
2022-08-19T16:40:00.447Z,101156.31
2022-08-19T16:42:33.944Z,101161.84
2022-08-19T16:45:08.816Z,101159.06
2022-08-19T16:47:41.167Z,101164.91
2022-08-19T16:50:13.269Z,101171.03
2022-08-19T16:52:47.488Z,101157.22
2022-08-19T16:55:22.103Z,101167.53
2022-08-19T16:57:54.206Z,101160.34
2022-08-19T17:00:26.281Z,101159.81
2022-08-19T17:03:05.677Z,101160.94
2022-08-19T17:05:48.391Z,101166.50
2022-08-19T17:08:22.028Z,101169.31
2022-08-19T17:11:17.197Z,101166.00
2022-08-19T17:13:48.317Z,101171.03
2022-08-19T17:16:24.513Z,101169.38
2022-08-19T17:18:58.585Z,101169.94
2022-08-19T17:21:32.540Z,101167.72
2022-08-19T17:24:06.708Z,101168.28
2022-08-19T17:26:38.874Z,101167.19
2022-08-19T17:29:10.931Z,101165.28
2022-08-19T17:31:43.512Z,101173.03
2022-08-19T17:34:17.186Z,101177.19
2022-08-19T17:36:49.337Z,101174.97
2022-08-19T17:39:21.299Z,101183.84
2022-08-19T17:41:53.330Z,101184.94
2022-08-19T17:44:25.375Z,101180.78
2022-08-19T17:46:57.351Z,101178.81
2022-08-19T17:49:29.334Z,101177.72
2022-08-19T17:52:09.472Z,101180.50
2022-08-19T17:54:41.998Z,101181.59
2022-08-19T17:57:14.203Z,101177.19
2022-08-19T17:59:46.437Z,101181.34
2022-08-19T18:02:21.830Z,101181.34
2022-08-19T18:04:54.546Z,101177.19
2022-08-19T18:07:26.481Z,101179.69
2022-08-19T18:09:58.752Z,101173.88
2022-08-19T18:12:36.513Z,101168.88
2022-08-19T18:15:09.347Z,101173.31
2022-08-19T18:17:41.608Z,101173.59
2022-08-19T18:20:16.765Z,101172.16
2022-08-19T18:22:49.421Z,101174.91
2022-08-19T18:25:26.094Z,101176.28
2022-08-19T18:28:00.505Z,101171.56
2022-08-19T18:30:35.797Z,101177.09
2022-08-19T18:33:15.218Z,101174.31
2022-08-19T18:35:49.465Z,101171.53
2022-08-19T18:39:06.427Z,101174.88
2022-08-19T18:41:58.596Z,101163.78
2022-08-19T18:44:48.820Z,101158.78
2022-08-19T18:47:41.650Z,101164.88
2022-08-19T18:50:13.871Z,101163.75
2022-08-19T18:52:46.007Z,101163.19
2022-08-19T18:55:18.647Z,101157.63
2022-08-19T18:57:51.081Z,101153.50
2022-08-19T19:00:25.339Z,101154.84
2022-08-19T19:02:57.974Z,101154.53
2022-08-19T19:05:30.188Z,101155.88
2022-08-19T19:08:02.596Z,101149.25
2022-08-19T19:10:36.263Z,101151.44
2022-08-19T19:13:08.565Z,101158.34
2022-08-19T19:15:43.494Z,101170.78
2022-08-19T19:18:15.740Z,101179.63
2022-08-19T19:20:47.791Z,101175.19
2022-08-19T19:23:21.215Z,101174.63
2022-08-19T19:25:53.407Z,101177.91
2022-08-19T19:28:28.033Z,101178.47
2022-08-19T19:31:00.062Z,101182.34
2022-08-19T19:33:32.307Z,101178.44
2022-08-19T19:36:04.688Z,101188.66
2022-08-19T19:38:36.867Z,101192.81
2022-08-19T19:41:08.773Z,101204.13
2022-08-19T19:43:41.189Z,101202.72
2022-08-19T19:46:13.873Z,101197.47
2022-08-19T19:48:49.273Z,101197.16
2022-08-19T19:51:22.413Z,101196.63
2022-08-19T19:53:55.047Z,101193.28
2022-08-19T19:56:27.224Z,101194.66
2022-08-19T19:58:59.332Z,101196.00
2022-08-19T20:01:31.769Z,101195.97
2022-08-19T20:04:05.680Z,101195.41
2022-08-19T20:06:37.638Z,101201.47
2022-08-19T20:09:16.301Z,101208.09
2022-08-19T20:11:56.061Z,101213.06
2022-08-19T20:14:32.068Z,101222.44
2022-08-19T20:17:05.443Z,101225.19
2022-08-19T20:19:37.767Z,101230.72
2022-08-19T20:22:10.426Z,101232.66
2022-08-19T20:24:44.796Z,101230.13
2022-08-19T20:27:16.755Z,101237.59
2022-08-19T20:29:49.678Z,101244.22
2022-08-19T20:32:23.976Z,101259.97
2022-08-19T20:34:58.549Z,101263.81
2022-08-19T20:37:30.653Z,101262.16
2022-08-19T20:40:03.063Z,101266.00
2022-08-19T20:42:35.622Z,101263.53
2022-08-19T20:45:32.190Z,101259.91
2022-08-19T20:48:04.178Z,101256.56
2022-08-19T20:50:36.547Z,101256.03
2022-08-19T20:53:10.975Z,101248.25
2022-08-19T20:55:44.845Z,101255.97
2022-08-19T20:58:18.627Z,101248.19
2022-08-19T21:00:55.597Z,101250.41
2022-08-19T21:03:32.391Z,101238.22
2022-08-19T21:06:04.533Z,101247.59
2022-08-19T21:08:36.940Z,101250.38
2022-08-19T21:11:10.467Z,101244.25
2022-08-19T21:13:42.558Z,101240.66
2022-08-19T21:16:14.590Z,101245.34
2022-08-19T21:18:46.652Z,101251.97
2022-08-19T21:21:18.848Z,101243.13
2022-08-19T21:23:50.701Z,101247.81
2022-08-19T21:26:22.830Z,101245.28
2022-08-19T21:28:54.871Z,101245.28
2022-08-19T21:31:26.846Z,101253.56
2022-08-19T21:33:59.700Z,101249.19
2022-08-19T21:36:31.714Z,101251.34
2022-08-19T21:39:04.331Z,101244.16
2022-08-19T21:41:36.215Z,101242.47
2022-08-19T21:44:14.412Z,101238.34
2022-08-19T21:46:50.519Z,101244.09
2022-08-19T21:49:22.906Z,101254.59
2022-08-19T21:51:54.934Z,101251.25
2022-08-19T21:54:26.859Z,101240.22
2022-08-19T21:57:11.066Z,101238.53
2022-08-19T21:59:44.075Z,101234.94
2022-08-19T22:02:21.479Z,101233.84
2022-08-19T22:04:54.497Z,101236.84
2022-08-19T22:07:26.466Z,101227.50
2022-08-19T22:09:58.340Z,101237.69
2022-08-19T22:12:35.413Z,101230.25
2022-08-19T22:15:09.110Z,101237.69
2022-08-19T22:17:41.945Z,101244.31
2022-08-19T22:20:17.755Z,101242.66
2022-08-19T22:22:51.870Z,101245.69
2022-08-19T22:25:31.455Z,101256.97
2022-08-19T22:28:07.228Z,101252.81
2022-08-19T22:30:44.120Z,101254.75
2022-08-19T22:33:17.997Z,101261.34
2022-08-19T22:35:51.833Z,101256.06
2022-08-19T22:38:24.459Z,101256.91
2022-08-19T22:40:57.242Z,101264.38
2022-08-19T22:43:31.870Z,101258.03
2022-08-19T22:46:06.396Z,101257.19
2022-08-19T22:49:00.597Z,101259.97
2022-08-19T22:51:51.844Z,101259.38
2022-08-19T22:54:23.802Z,101262.97
2022-08-19T22:56:55.840Z,101256.34
2022-08-19T22:59:27.868Z,101257.44
2022-08-19T23:01:59.773Z,101253.31
2022-08-19T23:04:31.664Z,101251.69
2022-08-19T23:07:04.898Z,101257.19
2022-08-19T23:09:36.760Z,101256.66
2022-08-19T23:12:08.954Z,101254.50
2022-08-19T23:14:42.782Z,101243.16
2022-08-19T23:17:14.882Z,101250.63
2022-08-19T23:19:47.107Z,101249.28
2022-08-19T23:22:19.242Z,101249.03
2022-08-19T23:25:03.125Z,101260.63
2022-08-19T23:27:54.067Z,101258.94
2022-08-19T23:30:26.585Z,101254.53
2022-08-19T23:33:02.067Z,101242.66
2022-08-19T23:35:36.509Z,101245.69
2022-08-19T23:38:09.649Z,101242.91
2022-08-19T23:40:41.655Z,101236.56
2022-08-19T23:43:20.392Z,101231.88
2022-08-19T23:46:00.948Z,101230.50
2022-08-19T23:48:34.465Z,101229.41
2022-08-19T23:51:09.191Z,101226.41
2022-08-19T23:53:42.045Z,101233.59
2022-08-19T23:56:13.994Z,101225.31
2022-08-19T23:58:47.231Z,101226.16
